Pittsburg, KS

1:37 AM CST on February 22, 2018 (GMT -0600)
Atkinson Municipal

Weather History for KPTS - March, 2014

Change the Weather History Date:

Thursday, March 13, 2014

  Actual Average (KJLN) Record (KJLN)
Temperature  
Mean Temperature 50 °F -  
Max Temperature 70 °F 56 °F 83 °F (2012)
Min Temperature 31 °F 35 °F 13 °F (1948)
Degree Days  
Heating Degree Days 14    
Moisture  
Dew Point 27 °F    
Average Humidity 48    
Maximum Humidity 87    
Minimum Humidity 16    
Precipitation  
Precipitation 0.00 in - - ()
Sea Level Pressure  
Sea Level Pressure 30.06 in    
Wind  
Wind Speed 6 mph (SW)    
Max Wind Speed 20 mph    
Max Gust Speed 28 mph    
Visibility 10 miles    
Events      
Averages and records for this station are not official NWS values.
T = Trace of Precipitation, MM = Missing Value Source: NWS Daily Summary

Daily Weather History Graph

Daily Weather History Graph

Search for Another Location

Airport or City:

Trip Planner

Search our weather history database for the weather conditions in past years. The results will help you decide how hot, cold, wet, or windy it might be!

Date:

Astronomy

Mar. 13, 2014 Rise Set
Actual Time 7:32 AM CDT 7:24 PM CDT
Civil Twilight 7:06 AM CDT 7:50 PM CDT
Nautical Twilight 6:36 AM CDT 8:20 PM CDT
Astronomical Twilight 6:06 AM CDT 8:51 PM CDT
Moon 4:53 PM CDT (3/13) 5:37 AM CDT (3/13)
Length of Visible Light 12h 43m
Length of Day
11h 51m
Waxing Gibbous, 91% of the Moon is Illuminated
Mar 13
Waxing Gibbous
Mar 16
Full
Mar 23
Last Quarter
Mar 30
New
Apr 7
First Quarter

Hourly Weather History & Observations

Time (CDT) Temp. Windchill Dew Point Humidity Pressure Visibility Wind Dir Wind Speed Gust Speed Precip Events Conditions
12:15 AM 35.8 °F - 28.4 °F 75% 30.16 in 10.0 mi Calm Calm - N/A   Clear
12:35 AM 35.6 °F - 29.3 °F 78% 30.16 in 10.0 mi Calm Calm - N/A   Clear
12:55 AM 35.4 °F - 29.8 °F 80% 30.16 in 10.0 mi Calm Calm - N/A   Clear
1:15 AM 34.9 °F - 30.4 °F 84% 30.16 in 10.0 mi Calm Calm - N/A   Clear
1:35 AM 35.1 °F - 30.7 °F 84% 30.15 in 10.0 mi Calm Calm - N/A   Clear
1:55 AM 35.6 °F - 30.4 °F 81% 30.15 in 10.0 mi Calm Calm - N/A   Clear
2:15 AM 35.6 °F 32.8 °F 29.3 °F 78% 30.15 in 10.0 mi SSW 3.5 mph - N/A   Clear
2:35 AM 34.5 °F 30.4 °F 28.9 °F 80% 30.14 in 10.0 mi SW 4.6 mph - N/A   Clear
2:55 AM 35.1 °F 30.1 °F 29.5 °F 80% 30.14 in 10.0 mi SW 5.8 mph - N/A   Clear
3:15 AM 34.5 °F - 28.9 °F 80% 30.13 in 10.0 mi Calm Calm - N/A   Clear
3:35 AM 34.9 °F - 28.2 °F 77% 30.13 in 10.0 mi Calm Calm - N/A   Clear
3:55 AM 33.8 °F 29.6 °F 28.2 °F 80% 30.12 in 10.0 mi SSW 4.6 mph - N/A   Clear
4:15 AM 33.1 °F 28.7 °F 27.7 °F 81% 30.12 in 10.0 mi SW 4.6 mph - N/A   Clear
4:35 AM 32.9 °F 29.8 °F 28.8 °F 85% 30.12 in 10.0 mi SW 3.5 mph - N/A   Clear
4:55 AM 32.0 °F 27.5 °F 28.6 °F 87% 30.12 in 10.0 mi SW 4.6 mph - N/A   Clear
5:15 AM 32.5 °F 28.1 °F 27.7 °F 82% 30.12 in 10.0 mi SW 4.6 mph - N/A   Clear
5:35 AM 32.5 °F 28.1 °F 28.2 °F 84% 30.12 in 10.0 mi SW 4.6 mph - N/A   Clear
5:55 AM 32.0 °F 28.7 °F 28.0 °F 85% 30.13 in 10.0 mi SW 3.5 mph - N/A   Clear
6:15 AM 31.5 °F 25.8 °F 27.5 °F 85% 30.13 in 10.0 mi SW 5.8 mph - N/A   Clear
6:35 AM 35.1 °F 31.0 °F 28.6 °F 77% 30.13 in 10.0 mi SW 4.6 mph - N/A   Clear
6:55 AM 35.6 °F 31.7 °F 28.2 °F 75% 30.12 in 10.0 mi SW 4.6 mph - N/A   Clear
7:15 AM 34.0 °F 28.8 °F 27.5 °F 77% 30.13 in 10.0 mi SSW 5.8 mph - N/A   Clear
7:35 AM 33.8 °F 29.6 °F 27.3 °F 77% 30.13 in 10.0 mi SW 4.6 mph - N/A   Clear
7:55 AM 35.2 °F 31.2 °F 27.0 °F 72% 30.13 in 10.0 mi SSW 4.6 mph - N/A   Clear
8:15 AM 34.7 °F 30.6 °F 27.7 °F 76% 30.14 in 10.0 mi SSW 4.6 mph - N/A   Clear
8:35 AM 36.5 °F 32.7 °F 28.9 °F 74% 30.14 in 10.0 mi SSW 4.6 mph - N/A   Clear
8:55 AM 39.2 °F 34.2 °F 30.0 °F 70% 30.14 in 10.0 mi SW 6.9 mph - N/A   Clear
9:15 AM 41.5 °F 37.1 °F 28.9 °F 61% 30.14 in 10.0 mi WSW 6.9 mph - N/A   Clear
9:35 AM 44.2 °F 40.3 °F 28.6 °F 54% 30.14 in 10.0 mi WSW 6.9 mph - N/A   Clear
9:55 AM 47.3 °F - 29.8 °F 51% 30.14 in 10.0 mi WSW 6.9 mph - N/A   Clear
10:15 AM 50.4 °F - 30.0 °F 46% 30.14 in 10.0 mi WSW 8.1 mph - N/A   Clear
10:35 AM 50.9 °F - 28.9 °F 43% 30.14 in 10.0 mi WSW 8.1 mph - N/A   Clear
10:55 AM 53.2 °F - 29.1 °F 40% 30.14 in 10.0 mi SW 9.2 mph - N/A   Clear
11:15 AM 55.8 °F - 30.2 °F 38% 30.13 in 10.0 mi WSW 10.4 mph - N/A   Clear
11:35 AM 56.7 °F - 29.1 °F 35% 30.13 in 10.0 mi WSW 9.2 mph - N/A   Clear
11:55 AM 58.3 °F - 29.3 °F 33% 30.12 in 10.0 mi WSW 9.2 mph - N/A   Clear
12:15 PM 60.4 °F - 29.5 °F 31% 30.11 in 10.0 mi SW 11.5 mph - N/A   Clear
12:35 PM 61.2 °F - 27.5 °F 28% 30.11 in 10.0 mi WSW 13.8 mph 17.3 mph N/A   Clear
12:55 PM 62.2 °F - 26.4 °F 26% 30.10 in 10.0 mi WSW 9.2 mph 18.4 mph N/A   Clear
1:15 PM 63.1 °F - 25.9 °F 24% 30.09 in 10.0 mi WSW 12.7 mph 19.6 mph N/A   Clear
1:35 PM 63.7 °F - 25.9 °F 24% 30.09 in 7.0 mi WSW 15.0 mph 20.7 mph N/A   Clear
1:55 PM 63.9 °F - 26.2 °F 24% 30.07 in 10.0 mi WSW 17.3 mph 27.6 mph N/A   Clear
2:15 PM 65.1 °F - 26.4 °F 23% 30.06 in 10.0 mi WSW 15.0 mph 24.2 mph N/A   Clear
2:35 PM 65.5 °F - 24.6 °F 21% 30.05 in 10.0 mi WSW 17.3 mph 23.0 mph N/A   Clear
2:55 PM 65.8 °F - 24.6 °F 21% 30.04 in 10.0 mi WSW 13.8 mph 23.0 mph N/A   Clear
3:15 PM 67.6 °F - 25.0 °F 20% 30.03 in 10.0 mi West 16.1 mph 23.0 mph N/A   Clear
3:35 PM 68.4 °F - 23.7 °F 19% 30.02 in 10.0 mi WSW 16.1 mph 23.0 mph N/A   Clear
3:55 PM 68.7 °F - 23.5 °F 18% 30.02 in 10.0 mi West 17.3 mph 24.2 mph N/A   Clear
4:15 PM 68.9 °F - 22.1 °F 17% 30.01 in 10.0 mi West 12.7 mph 26.5 mph N/A   Clear
4:35 PM 70.2 °F - 23.0 °F 17% 30.00 in 10.0 mi WSW 17.3 mph 23.0 mph N/A   Clear
4:55 PM 70.5 °F - 22.5 °F 16% 29.99 in 10.0 mi WSW 17.3 mph 21.9 mph N/A   Clear
5:15 PM 70.3 °F - 22.5 °F 16% 29.98 in 10.0 mi WSW 17.3 mph 25.3 mph N/A   Clear
5:35 PM 68.9 °F - 21.9 °F 17% 29.97 in 10.0 mi WSW 16.1 mph 24.2 mph N/A   Clear
5:55 PM 68.4 °F - 22.3 °F 17% 29.97 in 10.0 mi SW 17.3 mph 23.0 mph N/A   Clear
6:15 PM 66.9 °F - 21.6 °F 18% 29.96 in 10.0 mi SSW 19.6 mph 25.3 mph N/A   Clear
6:35 PM 65.3 °F - 21.9 °F 19% 29.96 in 10.0 mi SSW 16.1 mph 24.2 mph N/A   Clear
6:55 PM 63.9 °F - 22.6 °F 21% 29.95 in 10.0 mi SW 13.8 mph - N/A   Clear
7:15 PM 62.2 °F - 23.0 °F 22% 29.95 in 10.0 mi SSW 11.5 mph - N/A   Clear
7:35 PM 59.7 °F - 23.9 °F 25% 29.95 in 10.0 mi SSW 9.2 mph - N/A   Clear
7:55 PM 57.2 °F - 24.4 °F 28% 29.95 in 10.0 mi SSW 9.2 mph - N/A   Clear
8:15 PM 57.0 °F - 25.0 °F 29% 29.94 in 10.0 mi SSW 10.4 mph - N/A   Clear
8:35 PM 56.5 °F - 25.5 °F 30% 29.94 in 10.0 mi SSW 10.4 mph - N/A   Clear
8:55 PM 55.8 °F - 25.5 °F 31% 29.94 in 10.0 mi SSW 11.5 mph - N/A   Clear
9:15 PM 55.8 °F - 25.5 °F 31% 29.94 in 10.0 mi SSW 11.5 mph - N/A   Clear
9:35 PM 55.8 °F - 25.5 °F 31% 29.94 in 10.0 mi SSW 10.4 mph - N/A   Clear
9:55 PM 55.8 °F - 26.1 °F 32% 29.94 in 10.0 mi SSW 11.5 mph - N/A   Clear
10:15 PM 55.8 °F - 26.4 °F 32% 29.93 in 10.0 mi SSW 11.5 mph - N/A   Clear
10:35 PM 54.7 °F - 26.6 °F 34% 29.94 in 10.0 mi SSW 10.4 mph - N/A   Clear
10:55 PM 52.2 °F - 25.9 °F 36% 29.94 in 10.0 mi SSW 11.5 mph - N/A   Clear
11:15 PM 50.9 °F - 25.7 °F 38% 29.94 in 10.0 mi SSW 12.7 mph 17.3 mph N/A   Clear
11:35 PM 52.3 °F - 26.2 °F 36% 29.94 in 10.0 mi SSW 16.1 mph 20.7 mph N/A   Clear
11:55 PM 53.2 °F - 26.4 °F 35% 29.93 in 10.0 mi SSW 13.8 mph 19.6 mph N/A   Clear